Time;durP1;ratioP1;P1;durP2;ratioP2;P2;SDS_P1;SDS_P2;PMS_P1;PMS_P2;Temp;Humidity;BMP_temperature;BMP_pressure;BME280_temperature;BME280_humidity;BME280_pressure;Samples;Min_cycle;Max_cycle;Signal;HPM_P1;HPM_P2
2022/09/18 00:00:51;;;;;;;1.42;0.55;;;20.00;94.50;;;;;;5072288;28;20278;-78
2022/09/18 00:03:22;;;;;;;0.88;0.50;;;20.00;92.70;;;;;;5080597;28;20543;-78
2022/09/18 00:05:55;;;;;;;0.90;0.45;;;19.90;91.00;;;;;;5084023;28;20211;-77
2022/09/18 00:08:25;;;;;;;0.80;0.50;;;19.80;92.40;;;;;;5074843;28;20211;-77
2022/09/18 00:10:56;;;;;;;2.20;0.30;;;19.90;92.70;;;;;;5072353;28;20279;-78
2022/09/18 00:13:27;;;;;;;1.00;0.50;;;19.90;93.20;;;;;;5088576;28;20195;-77
2022/09/18 00:15:58;;;;;;;1.00;0.40;;;20.00;94.10;;;;;;5081107;28;20260;-78
2022/09/18 00:18:29;;;;;;;0.55;0.45;;;20.10;93.20;;;;;;5092081;28;20730;-78
2022/09/18 00:21:06;;;;;;;1.17;0.40;;;20.20;92.50;;;;;;5080984;28;20204;-77
2022/09/18 00:23:37;;;;;;;1.35;0.40;;;20.20;93.30;;;;;;5090218;28;20211;-79
2022/09/18 00:26:08;;;;;;;2.38;0.50;;;20.30;91.10;;;;;;5089888;28;20685;-78
2022/09/18 00:28:39;;;;;;;1.65;0.50;;;20.30;90.20;;;;;;5072029;28;20192;-78
2022/09/18 00:31:11;;;;;;;1.67;0.30;;;20.40;91.20;;;;;;5070599;28;20215;-79
2022/09/18 00:33:42;;;;;;;0.65;0.35;;;20.50;89.90;;;;;;5068632;28;20198;-78
2022/09/18 00:36:16;;;;;;;1.02;0.40;;;20.50;89.90;;;;;;5068276;28;20674;-78
2022/09/18 00:38:48;;;;;;;0.73;0.40;;;20.50;88.70;;;;;;5067188;28;20673;-80
2022/09/18 00:41:22;;;;;;;1.20;0.47;;;20.60;87.80;;;;;;5069530;28;20194;-79
2022/09/18 00:43:55;;;;;;;2.55;0.50;;;20.60;89.70;;;;;;5067330;28;20225;-79
2022/09/18 00:46:29;;;;;;;1.13;0.40;;;20.60;87.90;;;;;;5070746;28;20219;-79
2022/09/18 00:49:10;;;;;;;1.67;0.43;;;20.70;83.10;;;;;;5068260;28;20221;-78
2022/09/18 00:51:44;;;;;;;0.88;0.40;;;20.80;85.40;;;;;;5069754;28;20218;-79
2022/09/18 00:54:21;;;;;;;0.82;0.50;;;20.90;85.40;;;;;;5087356;28;20187;-79
2022/09/18 00:56:54;;;;;;;2.40;0.50;;;21.00;84.80;;;;;;5066514;28;20195;-79
2022/09/18 00:59:30;;;;;;;1.15;0.40;;;21.10;86.40;;;;;;5067993;28;20266;-77
2022/09/18 01:02:01;;;;;;;2.70;0.40;;;21.20;81.80;;;;;;5065978;28;20741;-79
2022/09/18 01:04:32;;;;;;;0.50;0.40;;;21.20;83.50;;;;;;5072362;28;20222;-78
2022/09/18 01:07:11;;;;;;;1.10;0.47;;;21.30;82.00;;;;;;5079210;28;20280;-78
2022/09/18 01:09:50;;;;;;;0.90;0.35;;;21.40;82.50;;;;;;5072106;28;20283;-78
2022/09/18 01:12:32;;;;;;;1.08;0.40;;;21.50;81.60;;;;;;5084786;28;20202;-78
2022/09/18 01:15:12;;;;;;;1.85;0.50;;;21.60;81.10;;;;;;5091017;28;20200;-78
2022/09/18 01:17:47;;;;;;;0.90;0.50;;;21.60;80.00;;;;;;5090450;28;20201;-78
2022/09/18 01:20:46;;;;;;;0.85;0.35;;;21.70;78.30;;;;;;5089070;28;20191;-79
2022/09/18 01:23:45;;;;;;;0.63;0.30;;;21.80;77.00;;;;;;5070609;28;20556;-79
2022/09/18 01:26:29;;;;;;;0.88;0.40;;;21.90;77.60;;;;;;5060779;28;20224;-79
2022/09/18 01:29:07;;;;;;;1.38;0.50;;;21.90;74.30;;;;;;5072833;28;20286;-80
2022/09/18 01:31:44;;;;;;;1.17;0.50;;;22.00;76.50;;;;;;5089694;28;20218;-78
2022/09/18 01:34:23;;;;;;;1.52;0.45;;;22.20;75.80;;;;;;5090564;28;20211;-78
2022/09/18 01:36:59;;;;;;;2.80;0.73;;;22.20;71.70;;;;;;5089741;28;20226;-79
2022/09/18 01:39:33;;;;;;;0.55;0.40;;;22.20;70.90;;;;;;5087429;28;20238;-79
2022/09/18 01:42:05;;;;;;;1.20;0.40;;;22.10;70.50;;;;;;5071325;28;20200;-78
2022/09/18 01:44:39;;;;;;;1.13;0.40;;;22.10;69.20;;;;;;5070891;28;20253;-79
2022/09/18 01:47:13;;;;;;;1.63;0.60;;;22.30;71.50;;;;;;5070643;28;20227;-79
2022/09/18 01:49:48;;;;;;;2.22;0.55;;;22.40;67.80;;;;;;5070733;28;20192;-79
2022/09/18 01:52:23;;;;;;;0.40;0.40;;;22.50;68.70;;;;;;5070434;28;20196;-79
2022/09/18 01:54:57;;;;;;;1.00;0.40;;;22.40;66.10;;;;;;5082571;28;20282;-79
2022/09/18 01:57:29;;;;;;;0.70;0.57;;;22.40;66.10;;;;;;5078926;28;20204;-79
2022/09/18 02:00:06;;;;;;;1.95;0.52;;;22.40;66.50;;;;;;5070111;28;20323;-79
2022/09/18 02:02:42;;;;;;;1.25;0.55;;;22.50;65.00;;;;;;5083436;28;20214;-79
2022/09/18 02:05:20;;;;;;;1.05;0.40;;;22.30;64.70;;;;;;5090544;28;20274;-79
2022/09/18 02:07:59;;;;;;;1.27;0.50;;;22.50;65.20;;;;;;5090570;28;20223;-79
2022/09/18 02:10:34;;;;;;;0.85;0.30;;;22.60;65.30;;;;;;5090520;28;20210;-79
2022/09/18 02:13:08;;;;;;;0.95;0.50;;;22.80;66.80;;;;;;5090182;28;20290;-79
2022/09/18 02:15:42;;;;;;;1.90;0.50;;;22.90;65.20;;;;;;5069962;28;20195;-79
2022/09/18 02:18:17;;;;;;;0.60;0.38;;;22.90;66.10;;;;;;5069910;28;20661;-79
2022/09/18 02:20:48;;;;;;;1.35;0.50;;;23.10;66.30;;;;;;5069858;28;20670;-79
2022/09/18 02:23:20;;;;;;;1.52;0.60;;;23.30;65.10;;;;;;5070075;28;20198;-79
2022/09/18 02:25:56;;;;;;;1.02;0.52;;;23.40;64.40;;;;;;5069986;28;20203;-79
2022/09/18 02:28:30;;;;;;;0.70;0.35;;;23.40;63.10;;;;;;5086955;28;20282;-79
2022/09/18 02:31:03;;;;;;;1.33;0.50;;;23.50;63.60;;;;;;5089504;28;20197;-80
2022/09/18 02:33:35;;;;;;;0.73;0.40;;;23.60;65.20;;;;;;5090607;28;20697;-79
2022/09/18 02:36:29;;;;;;;1.55;0.45;;;23.80;64.40;;;;;;5090319;28;20237;-79
2022/09/18 02:39:12;;;;;;;2.00;0.63;;;23.90;60.90;;;;;;5090195;28;20272;-78
2022/09/18 02:41:50;;;;;;;1.25;0.93;;;23.70;59.10;;;;;;5085767;28;20192;-79
2022/09/18 02:44:26;;;;;;;1.17;0.52;;;23.50;58.10;;;;;;5069154;28;20287;-78
2022/09/18 02:47:08;;;;;;;2.17;0.50;;;23.50;58.80;;;;;;5069778;28;20311;-79
2022/09/18 02:49:50;;;;;;;1.73;0.50;;;23.40;56.90;;;;;;5069728;28;20196;-79
2022/09/18 02:52:26;;;;;;;0.98;0.60;;;23.60;59.70;;;;;;5069904;28;20203;-80
2022/09/18 02:55:01;;;;;;;0.90;0.40;;;23.50;56.10;;;;;;5069812;28;20574;-80
2022/09/18 02:57:38;;;;;;;0.60;0.52;;;23.50;57.20;;;;;;5069991;28;20282;-80
2022/09/18 03:00:14;;;;;;;1.33;0.55;;;23.60;56.80;;;;;;5070532;28;20216;-79
2022/09/18 03:02:47;;;;;;;1.20;0.50;;;23.90;55.80;;;;;;5090030;28;20686;-80
2022/09/18 03:05:17;;;;;;;3.70;0.50;;;23.90;55.80;;;;;;5079010;28;20601;-80
2022/09/18 03:07:48;;;;;;;1.40;0.50;;;23.90;54.60;;;;;;5069492;28;20219;-79
2022/09/18 03:10:19;;;;;;;1.35;0.57;;;24.10;53.60;;;;;;5069543;28;20706;-80
2022/09/18 03:12:50;;;;;;;3.15;0.60;;;24.30;55.60;;;;;;5069979;28;20286;-81
2022/09/18 03:15:21;;;;;;;2.10;0.52;;;24.30;52.60;;;;;;5069789;28;20205;-79
2022/09/18 03:17:53;;;;;;;0.52;0.40;;;24.30;52.70;;;;;;5079410;28;20200;-79
2022/09/18 03:20:26;;;;;;;1.20;0.40;;;24.30;55.20;;;;;;5089581;28;20191;-80
2022/09/18 03:25:57;;;;;;;3.13;0.60;;;24.30;54.20;;;;;;5067073;28;20203;-79
2022/09/18 03:28:31;;;;;;;2.17;0.45;;;24.50;52.60;;;;;;5071862;28;20231;-80
2022/09/18 03:31:01;;;;;;;1.50;0.40;;;24.50;52.70;;;;;;5072214;28;20235;-80
2022/09/18 03:33:34;;;;;;;2.83;0.50;;;24.60;52.00;;;;;;5071884;28;20199;-80
2022/09/18 03:36:05;;;;;;;1.00;0.40;;;24.60;52.00;;;;;;5089940;28;20256;-80
2022/09/18 03:38:37;;;;;;;0.57;0.30;;;24.70;53.00;;;;;;5089443;28;20222;-80
2022/09/18 03:41:08;;;;;;;1.15;0.63;;;24.80;52.70;;;;;;5073632;28;20204;-79
2022/09/18 03:43:44;;;;;;;1.00;0.40;;;24.80;51.20;;;;;;5072549;28;20281;-80
2022/09/18 03:46:21;;;;;;;0.90;0.45;;;24.60;51.70;;;;;;5071838;28;20673;-81
2022/09/18 03:48:54;;;;;;;1.35;0.50;;;24.70;53.10;;;;;;5073074;28;20200;-80
2022/09/18 03:51:56;;;;;;;0.85;0.45;;;24.70;51.00;;;;;;5072790;28;20200;-80
2022/09/18 03:54:27;;;;;;;2.00;0.80;;;24.40;49.90;;;;;;5072850;28;20203;-79
2022/09/18 03:56:59;;;;;;;1.70;0.63;;;24.40;50.50;;;;;;5073739;28;20283;-81
2022/09/18 04:02:18;;;;;;;2.67;0.57;;;24.50;51.80;;;;;;5070601;28;20214;-80
2022/09/18 04:04:52;;;;;;;2.13;0.60;;;24.40;50.20;;;;;;5072630;28;20199;-81
2022/09/18 04:07:23;;;;;;;0.80;0.30;;;24.30;50.70;;;;;;5072396;28;20277;-80
2022/09/18 04:09:57;;;;;;;2.30;0.43;;;24.10;50.10;;;;;;5090426;28;20199;-80
2022/09/18 04:12:31;;;;;;;0.50;0.30;;;24.10;52.10;;;;;;5089236;28;20214;-79
2022/09/18 04:15:01;;;;;;;0.90;0.50;;;24.10;51.30;;;;;;5072713;28;20245;-80
2022/09/18 04:17:32;;;;;;;0.47;0.30;;;24.10;50.70;;;;;;5072350;28;20274;-80
2022/09/18 04:20:08;;;;;;;1.60;0.60;;;24.10;50.10;;;;;;5072022;28;20581;-79
2022/09/18 04:22:38;;;;;;;2.22;0.30;;;24.10;50.60;;;;;;5073333;28;20202;-79
2022/09/18 04:25:10;;;;;;;0.75;0.40;;;24.00;49.70;;;;;;5075747;28;20689;-79
2022/09/18 04:27:40;;;;;;;1.15;0.40;;;23.80;50.70;;;;;;5092278;28;20227;-79
2022/09/18 04:30:13;;;;;;;3.30;0.88;;;23.70;51.30;;;;;;5081373;28;20310;-79
2022/09/18 04:32:44;;;;;;;1.10;0.47;;;23.80;50.00;;;;;;5072137;28;20195;-79
2022/09/18 04:35:17;;;;;;;0.85;0.40;;;23.70;50.20;;;;;;5072033;28;20203;-80
2022/09/18 04:37:48;;;;;;;1.27;0.57;;;23.70;50.30;;;;;;5072063;28;20249;-80
2022/09/18 04:40:19;;;;;;;1.25;0.50;;;23.70;51.70;;;;;;5071067;28;20207;-79
2022/09/18 04:42:50;;;;;;;1.63;0.57;;;23.70;52.50;;;;;;5080855;28;20192;-79
2022/09/18 04:45:21;;;;;;;1.02;0.40;;;23.70;51.90;;;;;;5071846;28;20196;-79
2022/09/18 04:47:52;;;;;;;1.35;0.43;;;23.70;51.60;;;;;;5086520;28;20576;-79
2022/09/18 04:50:25;;;;;;;0.90;0.40;;;23.70;51.70;;;;;;5092073;28;20202;-79
2022/09/18 04:52:55;;;;;;;1.00;0.38;;;23.70;50.20;;;;;;5092220;28;20203;-79
2022/09/18 04:55:26;;;;;;;2.03;0.57;;;23.70;51.30;;;;;;5092078;28;20283;-80
2022/09/18 04:57:57;;;;;;;3.30;0.50;;;23.60;51.10;;;;;;5090706;28;20650;-79
2022/09/18 05:00:28;;;;;;;1.23;0.52;;;23.70;50.30;;;;;;5085124;28;20284;-79
2022/09/18 05:02:59;;;;;;;1.00;0.40;;;23.50;51.90;;;;;;5071771;28;20203;-80
2022/09/18 05:05:31;;;;;;;1.27;0.45;;;23.60;51.60;;;;;;5091224;28;20299;-79
2022/09/18 05:08:03;;;;;;;2.38;0.40;;;23.70;51.10;;;;;;5091688;28;20219;-79
2022/09/18 05:10:34;;;;;;;2.17;0.50;;;23.80;49.80;;;;;;5092402;28;20207;-80
2022/09/18 05:13:04;;;;;;;1.55;0.50;;;23.80;49.40;;;;;;5094074;28;20199;-80
2022/09/18 05:15:35;;;;;;;2.13;0.40;;;23.80;48.60;;;;;;5071778;28;20210;-79
2022/09/18 05:18:07;;;;;;;1.42;0.47;;;23.70;49.90;;;;;;5071694;28;20245;-80
2022/09/18 05:20:42;;;;;;;1.20;0.47;;;23.80;49.90;;;;;;5072159;28;20231;-80
2022/09/18 05:23:13;;;;;;;3.22;0.50;;;23.90;49.60;;;;;;5071389;28;20606;-79
2022/09/18 05:25:44;;;;;;;0.85;0.38;;;24.10;50.50;;;;;;5091558;28;20199;-80
2022/09/18 05:28:17;;;;;;;0.50;0.38;;;24.10;49.60;;;;;;5091183;28;20636;-79
2022/09/18 05:30:48;;;;;;;1.10;0.50;;;24.10;49.00;;;;;;5091084;28;20213;-80
2022/09/18 05:33:19;;;;;;;1.08;0.45;;;24.10;48.40;;;;;;5089728;28;20620;-84
2022/09/18 05:35:56;;;;;;;1.80;0.50;;;24.30;49.00;;;;;;5090786;28;20236;-81
2022/09/18 05:38:27;;;;;;;2.63;0.40;;;24.30;48.80;;;;;;5079591;28;20230;-80
2022/09/18 05:41:01;;;;;;;0.95;0.63;;;24.30;49.10;;;;;;5071021;28;20249;-80
2022/09/18 05:43:32;;;;;;;1.08;0.40;;;24.40;48.20;;;;;;5070880;28;20195;-80
2022/09/18 05:46:04;;;;;;;1.65;0.50;;;24.00;48.10;;;;;;5071041;28;20200;-80
2022/09/18 05:48:35;;;;;;;2.22;0.60;;;24.10;48.50;;;;;;5070009;28;20235;-81
2022/09/18 05:51:15;;;;;;;1.92;0.50;;;24.20;49.00;;;;;;5092399;28;20325;-81
2022/09/18 05:54:16;;;;;;;2.13;0.60;;;24.10;48.60;;;;;;5094718;28;20237;-81
2022/09/18 05:56:50;;;;;;;1.98;0.60;;;24.30;48.20;;;;;;5073999;28;20695;-81
2022/09/18 05:59:32;;;;;;;1.38;0.50;;;24.30;48.40;;;;;;5072202;28;20219;-80
2022/09/18 06:02:12;;;;;;;3.30;0.60;;;24.20;47.70;;;;;;5078012;28;20202;-85
2022/09/18 06:05:09;;;;;;;1.25;0.70;;;24.10;47.80;;;;;;5073857;28;20191;-82
2022/09/18 06:07:46;;;;;;;2.67;0.50;;;24.00;48.20;;;;;;5092309;28;20685;-82
2022/09/18 06:10:17;;;;;;;3.63;0.68;;;24.00;48.50;;;;;;5092356;28;20194;-81
2022/09/18 06:12:47;;;;;;;0.93;0.30;;;24.20;48.80;;;;;;5075736;28;20580;-80
2022/09/18 06:15:18;;;;;;;1.08;0.60;;;24.10;48.50;;;;;;5071613;28;20246;-81
2022/09/18 06:17:54;;;;;;;3.22;0.70;;;24.00;47.80;;;;;;5072011;28;20204;-80
2022/09/18 06:20:25;;;;;;;0.95;0.40;;;24.10;48.20;;;;;;5072045;28;20200;-80
2022/09/18 06:23:01;;;;;;;2.15;0.50;;;24.20;47.30;;;;;;5082897;28;20222;-80
2022/09/18 06:25:32;;;;;;;1.98;0.43;;;24.50;47.50;;;;;;5090708;28;20264;-80
2022/09/18 06:28:05;;;;;;;1.00;0.45;;;24.70;48.50;;;;;;5089962;28;20216;-80
2022/09/18 06:30:37;;;;;;;2.13;0.73;;;24.90;46.80;;;;;;5087185;28;20207;-80
2022/09/18 06:33:10;;;;;;;2.63;0.60;;;25.00;46.50;;;;;;5098136;28;20199;-81
2022/09/18 06:35:47;;;;;;;0.63;0.40;;;25.20;46.00;;;;;;5091750;28;20613;-82
2022/09/18 06:38:25;;;;;;;3.53;0.70;;;25.50;46.20;;;;;;5091632;28;20220;-81
2022/09/18 06:41:04;;;;;;;0.75;0.50;;;25.70;45.70;;;;;;5089854;28;20223;-80
2022/09/18 06:43:40;;;;;;;3.33;0.70;;;25.50;46.00;;;;;;5076107;28;20670;-82
2022/09/18 06:46:17;;;;;;;3.70;0.70;;;25.20;46.20;;;;;;5081765;28;20214;-81
2022/09/18 06:51:44;;;;;;;1.92;0.60;;;25.20;46.10;;;;;;5071721;28;20192;-81
2022/09/18 06:54:20;;;;;;;1.90;0.50;;;25.20;46.70;;;;;;5079254;28;20191;-81
2022/09/18 06:56:56;;;;;;;2.55;0.60;;;25.10;46.70;;;;;;5087900;28;20249;-80
2022/09/18 06:59:40;;;;;;;1.10;0.50;;;24.90;46.30;;;;;;5093942;28;20231;-81
2022/09/18 07:02:15;;;;;;;1.42;0.70;;;24.50;46.90;;;;;;5092952;28;20217;-82
2022/09/18 07:04:50;;;;;;;2.08;0.52;;;24.00;47.10;;;;;;5096543;28;20245;-81
2022/09/18 07:07:27;;;;;;;1.63;0.65;;;23.60;47.90;;;;;;5101374;28;20194;-81
2022/09/18 07:10:28;;;;;;;;;;;;;;;;;;;;;
2022/09/18 07:13:20;;;;;;;2.13;0.73;;;23.00;50.20;;;;;;5095753;28;20201;-80
2022/09/18 07:15:53;;;;;;;2.20;0.88;;;22.80;50.80;;;;;;5096630;28;20192;-81
2022/09/18 07:18:29;;;;;;;2.92;0.90;;;22.50;50.80;;;;;;5097195;28;20255;-81
2022/09/18 07:21:08;;;;;;;0.98;0.40;;;22.40;50.90;;;;;;5089025;28;20226;-79
2022/09/18 07:23:52;;;;;;;2.20;0.60;;;22.10;50.20;;;;;;5099374;28;20195;-80
2022/09/18 07:29:20;;;;;;;1.88;0.70;;;21.80;51.40;;;;;;5094167;28;20226;-80
2022/09/18 07:31:57;;;;;;;1.90;0.70;;;21.70;52.00;;;;;;5079125;28;20204;-80
2022/09/18 07:37:19;;;;;;;3.10;0.60;;;21.50;51.60;;;;;;5072001;28;20282;-80
2022/09/18 07:39:59;;;;;;;2.00;0.80;;;21.50;52.50;;;;;;5096375;28;20290;-80
2022/09/18 07:42:31;;;;;;;2.08;0.70;;;21.40;52.60;;;;;;5094252;28;20227;-81
2022/09/18 07:45:02;;;;;;;4.50;0.65;;;21.40;53.40;;;;;;5092362;28;20279;-81
2022/09/18 07:47:33;;;;;;;1.60;0.70;;;21.30;54.00;;;;;;5093329;28;20230;-80
2022/09/18 07:50:03;;;;;;;1.48;0.60;;;21.20;53.80;;;;;;5093246;28;20677;-79
2022/09/18 07:52:34;;;;;;;1.20;0.60;;;21.20;54.30;;;;;;5093346;28;20192;-81
2022/09/18 07:55:05;;;;;;;1.13;0.60;;;21.00;53.80;;;;;;5076278;28;20196;-79
2022/09/18 07:57:38;;;;;;;1.55;0.70;;;21.00;54.30;;;;;;5072855;28;20224;-81
2022/09/18 08:00:11;;;;;;;0.88;0.70;;;20.90;54.60;;;;;;5073607;28;20235;-80
2022/09/18 08:02:42;;;;;;;1.08;0.40;;;20.90;54.70;;;;;;5094185;28;20199;-80
2022/09/18 08:05:13;;;;;;;2.75;0.65;;;20.80;55.20;;;;;;5094022;28;20633;-81
2022/09/18 08:07:43;;;;;;;2.72;0.70;;;20.80;55.30;;;;;;5093203;28;20195;-81
2022/09/18 08:10:14;;;;;;;2.45;0.77;;;20.70;55.90;;;;;;5091277;28;20226;-80
2022/09/18 08:12:47;;;;;;;1.48;0.68;;;20.70;55.20;;;;;;5072535;28;20279;-80
2022/09/18 08:15:18;;;;;;;2.47;0.73;;;20.70;55.60;;;;;;5070981;28;20196;-79
2022/09/18 08:17:48;;;;;;;1.50;0.80;;;20.60;55.80;;;;;;5082287;28;20613;-80
2022/09/18 08:20:19;;;;;;;1.10;0.70;;;20.60;56.60;;;;;;5081354;28;20198;-81
2022/09/18 08:22:50;;;;;;;1.33;0.75;;;20.60;56.20;;;;;;5072125;28;20196;-81
2022/09/18 08:25:22;;;;;;;1.73;0.90;;;20.50;56.70;;;;;;5072532;28;20204;-81
2022/09/18 08:27:54;;;;;;;1.33;0.77;;;20.50;56.50;;;;;;5079159;28;20199;-80
2022/09/18 08:30:25;;;;;;;1.33;0.68;;;20.40;56.90;;;;;;5092517;28;20657;-79
2022/09/18 08:33:00;;;;;;;1.65;0.70;;;20.40;57.30;;;;;;5091161;28;20198;-85
2022/09/18 08:35:31;;;;;;;1.48;0.70;;;20.30;57.40;;;;;;5077871;28;20745;-80
2022/09/18 08:38:02;;;;;;;2.35;0.80;;;20.30;57.40;;;;;;5073980;28;20207;-81
2022/09/18 08:40:56;;;;;;;1.90;0.88;;;20.30;57.70;;;;;;5080506;28;20203;-81
2022/09/18 08:43:44;;;;;;;2.33;0.77;;;20.30;58.10;;;;;;5082697;28;20204;-82
2022/09/18 08:46:20;;;;;;;3.40;1.15;;;20.20;58.00;;;;;;5084344;28;20204;-82
2022/09/18 08:49:00;;;;;;;2.65;1.00;;;20.10;58.70;;;;;;5093449;28;20222;-82
2022/09/18 08:51:33;;;;;;;1.13;0.60;;;20.10;58.60;;;;;;5091844;28;20205;-83
2022/09/18 08:54:20;;;;;;;0.90;0.73;;;20.10;58.70;;;;;;5091688;28;20202;-83
2022/09/18 08:56:52;;;;;;;2.38;0.60;;;20.00;58.80;;;;;;5072066;28;20729;-82
2022/09/18 08:59:35;;;;;;;2.35;0.98;;;20.00;58.90;;;;;;5081083;28;20233;-82
2022/09/18 09:02:26;;;;;;;3.00;0.70;;;20.00;59.20;;;;;;5083364;28;20207;-82
2022/09/18 09:05:00;;;;;;;1.20;0.75;;;19.90;59.80;;;;;;5082736;28;20249;-81
2022/09/18 09:07:42;;;;;;;1.40;0.80;;;19.90;60.00;;;;;;5096352;28;20198;-80
2022/09/18 09:10:34;;;;;;;1.33;0.60;;;19.90;60.80;;;;;;5072396;28;20600;-82
2022/09/18 09:13:25;;;;;;;1.98;0.80;;;19.80;60.60;;;;;;5091217;28;20199;-82
2022/09/18 09:16:03;;;;;;;1.92;0.95;;;19.80;60.40;;;;;;5091868;28;20202;-82
2022/09/18 09:18:40;;;;;;;2.85;0.90;;;19.70;61.40;;;;;;5090653;28;20210;-82
2022/09/18 09:21:20;;;;;;;1.83;0.88;;;19.60;61.20;;;;;;5080390;28;20203;-81
2022/09/18 09:24:06;;;;;;;1.77;0.80;;;19.60;61.70;;;;;;5079746;28;20269;-82
2022/09/18 09:26:38;;;;;;;1.52;0.65;;;19.50;61.60;;;;;;5087848;28;20762;-82
2022/09/18 09:29:15;;;;;;;1.45;0.80;;;19.60;61.70;;;;;;5081958;28;20224;-82
2022/09/18 09:31:51;;;;;;;2.58;0.73;;;19.50;61.40;;;;;;5084799;28;20195;-83
2022/09/18 09:34:27;;;;;;;1.65;0.80;;;19.50;61.70;;;;;;5071045;28;20656;-83
2022/09/18 09:37:00;;;;;;;1.60;0.70;;;19.50;61.90;;;;;;5086923;28;20202;-82
2022/09/18 09:39:35;;;;;;;6.03;0.90;;;19.50;62.20;;;;;;5084861;28;20195;-81
2022/09/18 09:42:15;;;;;;;1.08;0.52;;;19.40;61.70;;;;;;5071742;28;20713;-83
2022/09/18 09:44:50;;;;;;;2.05;0.80;;;19.40;62.30;;;;;;5071087;28;20237;-82
2022/09/18 09:47:33;;;;;;;1.90;0.85;;;19.30;62.80;;;;;;5071001;28;20248;-82
2022/09/18 09:50:31;;;;;;;;;;;;;;;;;;;;;
2022/09/18 09:56:35;;;;;;;;;;;;;;;;;;;;;
2022/09/18 09:59:40;;;;;;;4.57;1.13;;;19.20;63.80;;;;;;5072860;28;20234;-81
2022/09/18 10:02:36;;;;;;;3.22;1.02;;;19.20;64.40;;;;;;5071871;28;20581;-81
2022/09/18 10:05:24;;;;;;;2.67;1.40;;;19.20;64.40;;;;;;5071412;28;20203;-81
2022/09/18 10:08:15;;;;;;;0.70;0.60;;;19.20;64.90;;;;;;5076099;28;20226;-82
2022/09/18 10:11:10;;;;;;;3.50;1.13;;;19.20;65.60;;;;;;5085931;28;20695;-82
2022/09/18 10:13:55;;;;;;;3.13;1.20;;;19.20;65.90;;;;;;5090392;28;20210;-81
2022/09/18 10:16:48;;;;;;;1.13;0.70;;;19.10;65.70;;;;;;5091990;28;20225;-82
2022/09/18 10:19:48;;;;;;;3.17;1.10;;;19.00;65.90;;;;;;5087526;28;20195;-85
2022/09/18 10:22:28;;;;;;;2.72;1.00;;;19.00;65.80;;;;;;5092527;28;20227;-81
2022/09/18 10:25:07;;;;;;;2.38;1.30;;;19.00;66.30;;;;;;5083336;28;20610;-81
2022/09/18 10:27:38;;;;;;;1.85;1.20;;;19.00;67.00;;;;;;5073639;28;20257;-81
2022/09/18 10:30:18;;;;;;;1.65;0.90;;;18.90;68.10;;;;;;5090219;28;20219;-83
2022/09/18 10:32:51;;;;;;;1.10;0.80;;;18.90;67.80;;;;;;5091110;28;20210;-81
2022/09/18 10:35:45;;;;;;;1.20;0.70;;;18.80;68.10;;;;;;5079715;28;20222;-82
2022/09/18 10:38:33;;;;;;;0.90;0.60;;;18.80;67.70;;;;;;5070132;28;20207;-81
2022/09/18 10:41:38;;;;;;;3.33;0.75;;;18.80;68.30;;;;;;5082031;28;20582;-82
2022/09/18 10:44:31;;;;;;;2.17;1.00;;;18.80;68.40;;;;;;5079894;28;20195;-82
2022/09/18 10:47:08;;;;;;;3.03;1.13;;;18.70;68.50;;;;;;5083734;28;20207;-80
2022/09/18 10:49:49;;;;;;;1.65;0.75;;;18.70;66.00;;;;;;5070295;28;20729;-81
2022/09/18 10:52:36;;;;;;;4.05;1.00;;;18.70;66.00;;;;;;5070193;28;20200;-81
2022/09/18 10:55:19;;;;;;;3.42;1.20;;;18.60;66.00;;;;;;5070232;28;20196;-80
2022/09/18 10:58:07;;;;;;;3.92;1.35;;;18.60;66.20;;;;;;5084436;28;20606;-80
2022/09/18 11:00:41;;;;;;;2.55;1.35;;;18.60;67.10;;;;;;5080763;28;20271;-80
2022/09/18 11:03:22;;;;;;;3.10;1.38;;;18.60;67.10;;;;;;5074861;28;20571;-81
2022/09/18 11:05:59;;;;;;;3.65;1.30;;;18.60;69.30;;;;;;5069991;28;20199;-80
2022/09/18 11:08:42;;;;;;;2.10;0.90;;;18.60;72.00;;;;;;5071978;28;20199;-80
2022/09/18 11:11:21;;;;;;;1.67;1.02;;;18.60;72.90;;;;;;5084932;28;20287;-81
2022/09/18 11:13:57;;;;;;;1.15;0.73;;;18.50;72.60;;;;;;5090240;28;20199;-79
2022/09/18 11:16:31;;;;;;;2.83;0.90;;;18.50;75.70;;;;;;5090032;28;20195;-80
2022/09/18 11:19:20;;;;;;;1.85;1.10;;;18.50;78.50;;;;;;5089780;28;20587;-82
2022/09/18 11:21:54;;;;;;;2.00;0.90;;;18.40;78.00;;;;;;5090147;28;20187;-81
2022/09/18 11:24:35;;;;;;;1.80;1.30;;;18.30;79.00;;;;;;5086799;28;20277;-84
2022/09/18 11:27:21;;;;;;;1.65;1.02;;;18.30;79.30;;;;;;5099630;28;20219;-79
2022/09/18 11:30:14;;;;;;;2.28;0.70;;;18.30;80.30;;;;;;5092625;28;20251;-82
2022/09/18 11:32:48;;;;;;;2.05;0.82;;;18.20;79.80;;;;;;5075906;28;20238;-80
2022/09/18 11:35:21;;;;;;;1.25;0.60;;;18.20;79.80;;;;;;5082705;28;20192;-81
2022/09/18 11:37:54;;;;;;;1.25;0.60;;;18.20;81.10;;;;;;5074506;28;20204;-79
2022/09/18 11:40:30;;;;;;;1.13;0.65;;;18.20;81.40;;;;;;5072736;28;20284;-80
2022/09/18 11:43:04;;;;;;;2.63;0.68;;;18.20;82.90;;;;;;5072716;28;20675;-80
2022/09/18 11:45:48;;;;;;;1.38;0.55;;;18.20;82.70;;;;;;5089486;28;20195;-81
2022/09/18 11:48:29;;;;;;;1.83;0.70;;;18.20;84.50;;;;;;5084531;28;20203;-81
2022/09/18 11:51:04;;;;;;;0.43;0.40;;;18.20;86.40;;;;;;5079135;28;20216;-81
2022/09/18 11:53:44;;;;;;;1.70;0.60;;;18.10;87.80;;;;;;5079666;28;20195;-82
2022/09/18 11:56:30;;;;;;;2.15;0.50;;;18.10;88.80;;;;;;5079849;28;20199;-80
2022/09/18 11:59:10;;;;;;;1.92;0.65;;;18.10;89.80;;;;;;5081258;28;20205;-79
2022/09/18 12:01:51;;;;;;;1.48;0.63;;;18.20;90.20;;;;;;5095550;28;20599;-82
2022/09/18 12:04:34;;;;;;;0.73;0.47;;;18.10;90.50;;;;;;5081111;28;20204;-80
2022/09/18 12:07:30;;;;;;;2.65;0.80;;;18.10;91.70;;;;;;5079976;28;20286;-82
2022/09/18 12:10:15;;;;;;;1.80;0.52;;;18.10;91.30;;;;;;5087287;28;20203;-81
2022/09/18 12:12:58;;;;;;;1.30;0.60;;;18.10;91.80;;;;;;5097387;28;20257;-79
2022/09/18 12:15:39;;;;;;;0.65;0.50;;;18.10;92.00;;;;;;5101968;28;20202;-82
2022/09/18 12:18:19;;;;;;;1.50;0.57;;;18.10;92.00;;;;;;5087855;28;20666;-81
2022/09/18 12:20:58;;;;;;;2.92;0.70;;;18.10;91.70;;;;;;5078831;28;20239;-78
2022/09/18 12:23:29;;;;;;;1.30;0.77;;;18.10;92.10;;;;;;5092858;28;20222;-81
2022/09/18 12:26:22;;;;;;;2.22;0.60;;;18.10;92.50;;;;;;5080477;28;20199;-84
2022/09/18 12:29:12;;;;;;;1.95;0.50;;;18.10;92.70;;;;;;5080033;28;20199;-82
2022/09/18 12:31:56;;;;;;;1.20;0.50;;;18.10;93.20;;;;;;5078895;28;20206;-83
2022/09/18 12:34:47;;;;;;;1.90;0.60;;;18.10;94.10;;;;;;5079786;28;20195;-82
2022/09/18 12:37:42;;;;;;;1.20;0.50;;;18.10;95.20;;;;;;5087463;28;20197;-83
2022/09/18 12:40:37;;;;;;;1.80;0.52;;;18.10;95.80;;;;;;5097700;28;20608;-84
2022/09/18 12:43:31;;;;;;;2.17;0.50;;;18.00;95.80;;;;;;5091862;28;20214;-83
2022/09/18 12:46:41;;;;;;;1.35;0.50;;;18.00;95.70;;;;;;5079075;28;20576;-84
2022/09/18 12:49:34;;;;;;;1.02;0.50;;;18.00;96.20;;;;;;5077465;28;20203;-82
2022/09/18 12:52:20;;;;;;;1.60;0.68;;;18.00;97.40;;;;;;5077585;28;20200;-82
2022/09/18 12:55:34;;;;;;;1.52;0.55;;;18.00;96.80;;;;;;5075045;28;20693;-82
2022/09/18 12:58:17;;;;;;;0.85;0.40;;;18.00;98.00;;;;;;5051568;28;20280;-83
2022/09/18 13:00:51;;;;;;;1.25;0.50;;;17.90;99.30;;;;;;5091896;28;20234;-83
2022/09/18 13:03:27;;;;;;;1.98;0.50;;;17.90;99.90;;;;;;5092677;28;20195;-83
2022/09/18 13:06:03;;;;;;;3.47;0.52;;;17.90;99.90;;;;;;5092808;28;20206;-84
2022/09/18 13:08:39;;;;;;;1.70;0.50;;;17.80;99.90;;;;;;5092698;28;20195;-84
2022/09/18 13:11:29;;;;;;;0.90;0.57;;;17.80;99.90;;;;;;5092623;28;20252;-84
2022/09/18 13:14:03;;;;;;;1.70;0.52;;;17.80;99.90;;;;;;5075696;28;20662;-84
2022/09/18 13:16:40;;;;;;;2.58;0.57;;;17.80;99.90;;;;;;5089515;28;20191;-82
2022/09/18 13:19:18;;;;;;;1.92;0.52;;;17.70;99.90;;;;;;5089276;28;20206;-82
2022/09/18 13:21:50;;;;;;;0.90;0.50;;;17.70;99.90;;;;;;5076171;28;20730;-82
2022/09/18 13:24:24;;;;;;;1.65;0.70;;;17.70;99.90;;;;;;5076974;28;20681;-81
2022/09/18 13:26:55;;;;;;;1.90;0.47;;;17.70;99.90;;;;;;5077762;28;20198;-81
2022/09/18 13:29:55;;;;;;;0.90;0.47;;;17.60;99.90;;;;;;5083546;28;20638;-83
2022/09/18 13:32:39;;;;;;;0.95;0.70;;;17.60;99.90;;;;;;5096548;28;20566;-82
2022/09/18 13:35:23;;;;;;;0.55;0.47;;;17.60;99.90;;;;;;5082157;28;20199;-81
2022/09/18 13:38:07;;;;;;;0.63;0.50;;;17.50;99.90;;;;;;5088418;28;20195;-81
2022/09/18 13:40:40;;;;;;;1.98;0.50;;;17.50;99.90;;;;;;5074390;28;20286;-82
2022/09/18 13:43:42;;;;;;;0.63;0.47;;;17.40;99.90;;;;;;5078000;28;20202;-81
2022/09/18 13:46:38;;;;;;;2.40;0.57;;;17.40;99.90;;;;;;5090505;28;20658;-82
2022/09/18 13:49:23;;;;;;;1.17;0.55;;;17.40;99.90;;;;;;5083926;28;20206;-81
2022/09/18 13:51:56;;;;;;;2.45;0.68;;;17.30;99.90;;;;;;5073710;28;20195;-82
2022/09/18 13:54:29;;;;;;;1.85;0.77;;;17.30;99.90;;;;;;5091746;28;20661;-82
2022/09/18 13:57:22;;;;;;;0.73;0.60;;;17.20;99.90;;;;;;5092114;28;20215;-81
2022/09/18 13:59:57;;;;;;;1.90;0.70;;;17.20;99.90;;;;;;5090210;28;20237;-81
2022/09/18 14:02:34;;;;;;;1.08;0.60;;;17.20;99.90;;;;;;5090185;28;20721;-82